Time;durP1;ratioP1;P1;durP2;ratioP2;P2;SDS_P1;SDS_P2;PMS_P1;PMS_P2;Temp;Humidity;BMP_temperature;BMP_pressure;BME280_temperature;BME280_humidity;BME280_pressure;Samples;Min_cycle;Max_cycle;Signal;HPM_P1;HPM_P2
2022/01/16 00:05:07;;;;;;;7.10;6.40;;;17.10;73.20;;;;;;2267043;62;30357;-74
2022/01/16 00:07:33;;;;;;;7.20;6.40;;;17.10;73.40;;;;;;2274965;62;29997;-75
2022/01/16 00:09:59;;;;;;;6.15;5.55;;;17.10;73.50;;;;;;2274847;62;30905;-75
2022/01/16 00:12:24;;;;;;;7.25;6.45;;;17.10;73.50;;;;;;2275323;62;30458;-75
2022/01/16 00:14:51;;;;;;;9.23;6.60;;;17.10;73.40;;;;;;2266913;62;30231;-74
2022/01/16 00:17:19;;;;;;;7.35;6.65;;;17.10;73.40;;;;;;2274678;62;30543;-75
2022/01/16 00:19:44;;;;;;;7.40;6.47;;;17.10;73.40;;;;;;2275171;62;30282;-75
2022/01/16 00:22:14;;;;;;;8.15;7.18;;;17.10;73.40;;;;;;2274956;62;30505;-74
2022/01/16 00:24:40;;;;;;;9.32;6.75;;;17.10;73.40;;;;;;2274737;62;30130;-75
2022/01/16 00:27:07;;;;;;;7.90;6.75;;;17.10;73.40;;;;;;2267688;62;31006;-75
2022/01/16 16:49:45;;;;;;;7.85;2.88;;;14.10;78.70;;;;;;2282960;62;30018;-76
2022/01/16 16:52:17;;;;;;;6.18;2.83;;;14.10;78.00;;;;;;2274936;62;30237;-77
2022/01/16 16:54:43;;;;;;;4.70;3.13;;;14.20;79.00;;;;;;2274905;62;30304;-80
2022/01/16 16:57:10;;;;;;;4.68;3.13;;;14.40;79.90;;;;;;2268808;62;30305;-76
2022/01/16 16:59:36;;;;;;;4.80;3.10;;;14.40;80.50;;;;;;2266800;62;30701;-79
2022/01/16 17:02:04;;;;;;;5.13;2.85;;;14.50;81.00;;;;;;2259370;62;30071;-76
2022/01/16 17:04:30;;;;;;;4.28;2.80;;;14.60;81.40;;;;;;2266543;62;30415;-78
2022/01/16 17:06:56;;;;;;;6.10;2.67;;;14.70;81.50;;;;;;2266751;62;30037;-77
2022/01/16 17:09:22;;;;;;;4.72;2.60;;;14.70;81.70;;;;;;2252866;62;30174;-78
2022/01/16 17:11:47;;;;;;;5.25;2.85;;;14.70;81.70;;;;;;2266348;62;30220;-76
2022/01/16 17:14:13;;;;;;;3.08;2.78;;;14.80;81.70;;;;;;2266600;62;30277;-73
2022/01/16 17:16:47;;;;;;;3.00;2.58;;;14.80;81.70;;;;;;2266473;62;30979;-76
2022/01/16 17:19:19;;;;;;;4.50;2.50;;;14.90;81.90;;;;;;2266618;62;30193;-75
2022/01/16 17:21:45;;;;;;;5.40;2.85;;;14.90;81.90;;;;;;2266955;62;30244;-76
2022/01/16 17:24:11;;;;;;;3.03;2.70;;;15.00;81.90;;;;;;2258942;62;30274;-74
2022/01/16 17:26:37;;;;;;;6.30;2.92;;;15.10;81.90;;;;;;2265735;62;30756;-74
2022/01/16 17:29:03;;;;;;;3.85;2.65;;;15.20;81.50;;;;;;2266663;62;32213;-76
2022/01/16 17:31:29;;;;;;;4.90;2.88;;;15.20;81.40;;;;;;2274145;62;30075;-75
2022/01/16 17:33:55;;;;;;;6.35;3.50;;;15.20;81.20;;;;;;2274214;62;30087;-74
2022/01/16 17:36:21;;;;;;;6.65;3.70;;;15.20;81.20;;;;;;2274410;62;30150;-75
2022/01/16 17:38:47;;;;;;;3.55;3.25;;;15.10;81.10;;;;;;2274327;62;30423;-74
2022/01/16 17:41:12;;;;;;;6.20;3.22;;;15.10;81.30;;;;;;2274570;62;30249;-74
2022/01/16 17:43:39;;;;;;;8.27;3.50;;;15.10;81.40;;;;;;2274371;62;30339;-73
2022/01/16 17:46:05;;;;;;;6.78;3.35;;;15.10;81.30;;;;;;2260123;62;31118;-73
2022/01/16 17:48:32;;;;;;;7.78;3.00;;;15.20;81.20;;;;;;2274441;62;30861;-72
2022/01/16 17:50:58;;;;;;;7.05;3.42;;;15.30;81.00;;;;;;2274705;62;30165;-72
2022/01/16 17:53:26;;;;;;;4.47;2.70;;;15.40;80.90;;;;;;2270509;62;30397;-71
2022/01/16 17:55:52;;;;;;;3.85;2.50;;;15.60;80.70;;;;;;2269626;62;29984;-73
2022/01/16 17:58:19;;;;;;;3.92;2.45;;;15.80;80.50;;;;;;2265850;62;30286;-72
2022/01/16 18:00:45;;;;;;;3.20;2.40;;;15.90;80.20;;;;;;2261401;62;30104;-73
2022/01/16 18:03:11;;;;;;;2.53;2.30;;;16.10;79.80;;;;;;2260787;63;30679;-72
2022/01/16 18:05:37;;;;;;;2.17;1.98;;;16.30;79.50;;;;;;2260857;63;30182;-73
2022/01/16 18:08:03;;;;;;;2.30;1.98;;;16.40;79.20;;;;;;2260515;63;30393;-72
2022/01/16 18:10:29;;;;;;;3.45;2.10;;;16.50;78.90;;;;;;2260950;63;30350;-72
2022/01/16 18:12:58;;;;;;;3.08;2.30;;;16.70;78.60;;;;;;2253350;63;30009;-73
2022/01/16 18:15:24;;;;;;;2.33;1.90;;;16.70;78.10;;;;;;2260611;63;30259;-73
2022/01/16 18:17:50;;;;;;;2.53;1.92;;;16.80;78.00;;;;;;2253370;63;30404;-73
2022/01/16 18:20:17;;;;;;;2.75;2.17;;;16.90;77.80;;;;;;2260716;63;30099;-73
2022/01/16 18:22:44;;;;;;;2.85;2.03;;;17.00;77.50;;;;;;2253663;63;30209;-71
2022/01/16 18:25:10;;;;;;;2.90;1.92;;;17.00;77.40;;;;;;2253815;63;30317;-72
2022/01/16 18:27:36;;;;;;;2.33;1.90;;;17.10;76.70;;;;;;2260537;63;30194;-72
2022/01/16 18:30:02;;;;;;;2.30;1.80;;;17.10;76.60;;;;;;2260574;63;30723;-72
2022/01/16 18:32:28;;;;;;;2.10;1.90;;;17.10;76.50;;;;;;2260599;63;30411;-72
2022/01/16 18:34:54;;;;;;;3.67;1.67;;;17.20;76.10;;;;;;2260475;63;30913;-73
2022/01/16 18:37:20;;;;;;;3.55;2.28;;;17.20;76.00;;;;;;2252241;62;30577;-73
2022/01/16 18:39:48;;;;;;;3.47;2.10;;;17.20;75.90;;;;;;2267744;62;30581;-73
2022/01/16 18:42:14;;;;;;;2.47;2.15;;;17.20;75.80;;;;;;2268416;62;30089;-73
2022/01/16 18:44:43;;;;;;;4.70;1.77;;;17.20;75.70;;;;;;2268795;62;30036;-73
2022/01/16 18:47:09;;;;;;;3.30;1.92;;;17.20;75.70;;;;;;2268750;62;30319;-73
2022/01/16 18:49:35;;;;;;;2.50;1.60;;;17.30;75.60;;;;;;2268453;62;30362;-73
2022/01/16 18:52:01;;;;;;;3.53;2.15;;;17.30;75.60;;;;;;2268829;62;30303;-73
2022/01/16 18:54:28;;;;;;;3.33;1.73;;;17.30;75.50;;;;;;2267882;62;30227;-73
2022/01/16 18:56:55;;;;;;;3.35;2.03;;;17.30;75.50;;;;;;2268461;62;30196;-73
2022/01/16 18:59:20;;;;;;;3.95;1.67;;;17.30;75.50;;;;;;2268633;62;30337;-73
2022/01/16 19:01:46;;;;;;;2.53;2.08;;;17.30;75.50;;;;;;2268799;62;30301;-73
2022/01/16 19:04:18;;;;;;;2.78;1.83;;;17.30;75.40;;;;;;2268616;62;30216;-73
2022/01/16 19:06:44;;;;;;;;;;;17.30;75.40;;;;;;2269205;62;30152;-73
2022/01/16 19:09:10;;;;;;;2.33;1.90;;;17.30;74.00;;;;;;2268625;62;30111;-73
2022/01/16 19:11:35;;;;;;;2.22;1.80;;;17.30;75.40;;;;;;2268159;62;30253;-73
2022/01/16 19:14:01;;;;;;;3.13;1.77;;;17.30;75.20;;;;;;2264448;62;30360;-73
2022/01/16 19:16:28;;;;;;;2.75;2.10;;;17.30;75.20;;;;;;2253097;62;30228;-72
2022/01/16 19:18:53;;;;;;;5.60;2.13;;;17.30;75.10;;;;;;2253273;63;30144;-71
2022/01/16 19:21:19;;;;;;;3.20;2.08;;;17.40;75.00;;;;;;2260474;63;30487;-74
2022/01/16 19:23:47;;;;;;;4.07;1.90;;;17.40;74.90;;;;;;2260202;63;30811;-75
2022/01/16 19:26:13;;;;;;;2.55;1.85;;;17.30;74.70;;;;;;2260504;63;30261;-74
2022/01/16 19:28:39;;;;;;;6.00;2.17;;;17.40;74.70;;;;;;2250764;62;30343;-84
2022/01/16 19:31:05;;;;;;;3.13;1.98;;;17.40;74.60;;;;;;2251796;63;30199;-84
2022/01/16 19:33:31;;;;;;;3.40;2.08;;;17.40;74.30;;;;;;2259317;63;30120;-86
2022/01/16 19:35:58;;;;;;;3.97;2.00;;;17.40;74.10;;;;;;2245802;63;30201;-86
2022/01/16 19:38:24;;;;;;;4.63;2.10;;;17.40;73.90;;;;;;2245669;63;30103;-83
2022/01/16 19:40:49;;;;;;;4.43;2.20;;;17.40;73.70;;;;;;2252277;63;31736;-82
2022/01/16 19:43:20;;;;;;;3.55;1.95;;;17.40;73.60;;;;;;2258963;62;30119;-82
2022/01/16 19:45:46;;;;;;;2.72;1.80;;;17.50;73.60;;;;;;2251418;62;30427;-83
2022/01/16 19:48:14;;;;;;;5.93;2.33;;;17.40;73.40;;;;;;2251718;63;30264;-84
2022/01/16 19:50:40;;;;;;;2.97;2.03;;;17.40;73.30;;;;;;2251839;63;30405;-84
2022/01/16 19:53:06;;;;;;;3.72;1.75;;;17.40;73.20;;;;;;2258523;62;30196;-86
2022/01/16 19:55:34;;;;;;;3.60;2.13;;;17.50;73.30;;;;;;2253451;62;30387;-84
2022/01/16 19:58:00;;;;;;;3.65;2.17;;;17.50;73.20;;;;;;2267284;62;30634;-83
2022/01/16 20:00:26;;;;;;;2.47;1.45;;;17.50;73.10;;;;;;2266977;62;30308;-82
2022/01/16 20:02:53;;;;;;;3.47;2.00;;;17.50;73.10;;;;;;2260007;62;30066;-82
2022/01/16 20:05:23;;;;;;;2.42;1.63;;;17.50;73.10;;;;;;2255290;63;30182;-83
2022/01/16 20:07:49;;;;;;;2.70;1.67;;;17.50;73.00;;;;;;2251854;63;30365;-82
2022/01/16 20:10:15;;;;;;;3.80;1.80;;;17.50;73.00;;;;;;2251823;63;30141;-82
2022/01/16 20:12:42;;;;;;;3.05;1.75;;;17.50;73.00;;;;;;2258904;62;30079;-81
2022/01/16 20:15:09;;;;;;;3.25;1.85;;;17.50;72.90;;;;;;2259065;63;30505;-80
2022/01/16 20:17:37;;;;;;;3.13;1.63;;;17.50;72.90;;;;;;2259058;63;30345;-81
2022/01/16 20:20:04;;;;;;;2.38;1.38;;;17.50;72.90;;;;;;2258911;63;30179;-80
2022/01/16 20:22:30;;;;;;;1.75;1.60;;;17.50;72.80;;;;;;2258993;63;30135;-81
2022/01/16 20:24:56;;;;;;;3.17;1.85;;;17.50;72.80;;;;;;2259068;63;30467;-81
2022/01/16 20:27:21;;;;;;;2.22;1.40;;;17.50;72.80;;;;;;2258782;62;30811;-80
2022/01/16 20:29:47;;;;;;;2.42;1.40;;;17.50;72.70;;;;;;2259064;63;30401;-80
2022/01/16 20:32:13;;;;;;;1.52;1.33;;;17.50;73.50;;;;;;2259165;62;30962;-80
2022/01/16 20:34:39;;;;;;;2.53;1.60;;;17.50;72.70;;;;;;2258175;62;30355;-80
2022/01/16 20:37:05;;;;;;;2.30;1.60;;;17.50;72.70;;;;;;2259173;63;29974;-80
2022/01/16 20:39:31;;;;;;;2.58;1.55;;;17.50;72.70;;;;;;2258981;63;30067;-80
2022/01/16 20:41:58;;;;;;;3.25;1.73;;;17.50;72.60;;;;;;2249131;62;30198;-79
2022/01/16 20:44:24;;;;;;;1.33;1.23;;;17.50;72.60;;;;;;2260070;62;30420;-80
2022/01/16 20:46:51;;;;;;;1.60;1.45;;;17.50;72.70;;;;;;2253379;62;30296;-81
2022/01/16 20:49:17;;;;;;;1.95;1.25;;;17.50;72.70;;;;;;2266748;62;30329;-83
2022/01/16 20:51:45;;;;;;;2.97;1.35;;;17.50;72.60;;;;;;2259828;62;30870;-84
2022/01/16 20:54:12;;;;;;;2.42;1.30;;;17.50;72.60;;;;;;2253140;62;30233;-81
2022/01/16 20:56:40;;;;;;;1.90;1.40;;;17.50;72.60;;;;;;2258136;63;30715;-81
2022/01/16 20:59:06;;;;;;;1.90;1.15;;;17.50;72.60;;;;;;2258211;63;30400;-82
2022/01/16 21:01:34;;;;;;;2.92;1.40;;;17.50;72.60;;;;;;2256124;63;30394;-86
2022/01/16 21:04:00;;;;;;;2.90;1.40;;;17.50;72.60;;;;;;2251570;63;30367;-80
2022/01/16 21:06:26;;;;;;;3.33;1.48;;;17.50;72.50;;;;;;2258598;63;30253;-81
2022/01/16 21:08:52;;;;;;;3.05;1.40;;;17.50;72.50;;;;;;2251053;63;30210;-80
2022/01/16 21:11:18;;;;;;;2.47;1.50;;;17.50;72.50;;;;;;2257974;63;30210;-83
2022/01/16 21:13:48;;;;;;;1.95;1.10;;;17.50;72.60;;;;;;2258875;63;30613;-82
2022/01/16 21:16:16;;;;;;;2.92;1.55;;;17.50;72.60;;;;;;2258328;63;30154;-82
2022/01/16 21:18:42;;;;;;;2.85;1.20;;;17.50;73.40;;;;;;2251777;63;31087;-82
2022/01/16 21:21:08;;;;;;;3.75;1.60;;;17.50;72.70;;;;;;2258322;63;30294;-82
2022/01/16 21:23:33;;;;;;;3.15;1.42;;;17.40;72.60;;;;;;2258843;63;30216;-85
2022/01/16 21:25:59;;;;;;;2.30;1.48;;;17.40;72.70;;;;;;2258345;63;30687;-82
2022/01/16 21:28:25;;;;;;;1.92;1.42;;;17.40;72.60;;;;;;2258816;63;30326;-82
2022/01/16 21:30:51;;;;;;;4.18;1.58;;;17.40;72.60;;;;;;2258167;63;30295;-82
2022/01/16 21:33:17;;;;;;;1.65;1.10;;;17.40;72.60;;;;;;2257536;62;30672;-82
2022/01/16 21:35:43;;;;;;;2.13;1.40;;;17.40;72.60;;;;;;2259546;63;30318;-84
2022/01/16 21:38:09;;;;;;;3.20;1.30;;;17.40;72.60;;;;;;2252840;62;30295;-81
2022/01/16 21:40:35;;;;;;;3.58;1.27;;;17.40;72.50;;;;;;2252829;63;30366;-85
2022/01/16 21:43:02;;;;;;;2.08;1.55;;;17.40;72.50;;;;;;2252894;63;30735;-83
2022/01/16 21:45:27;;;;;;;1.42;1.20;;;17.40;72.50;;;;;;2252555;63;30196;-84
2022/01/16 21:47:56;;;;;;;1.83;1.00;;;17.40;72.50;;;;;;2261144;62;30165;-82
2022/01/16 21:50:22;;;;;;;2.97;1.70;;;17.40;72.50;;;;;;2252813;63;30192;-84
2022/01/16 21:52:50;;;;;;;2.30;1.23;;;17.40;72.40;;;;;;2245732;63;30815;-83
2022/01/16 21:55:17;;;;;;;2.90;1.10;;;17.40;72.30;;;;;;2246051;63;30224;-83
2022/01/16 21:57:45;;;;;;;2.30;1.50;;;17.40;72.30;;;;;;2250097;62;30222;-82
2022/01/16 22:00:11;;;;;;;3.42;1.30;;;17.40;72.20;;;;;;2260355;62;30593;-81
2022/01/16 22:02:38;;;;;;;2.53;1.27;;;17.40;72.30;;;;;;2254103;62;30250;-76
2022/01/16 22:05:05;;;;;;;2.17;1.58;;;17.40;72.30;;;;;;2260287;62;30250;-76
2022/01/16 22:07:31;;;;;;;1.80;1.10;;;17.30;72.40;;;;;;2265586;62;30174;-76
2022/01/16 22:09:58;;;;;;;2.88;1.60;;;17.30;72.50;;;;;;2261487;62;30235;-75
2022/01/16 22:12:31;;;;;;;2.83;1.25;;;17.30;72.60;;;;;;2253831;62;30278;-75
2022/01/16 22:14:58;;;;;;;2.47;1.50;;;17.30;72.50;;;;;;2251188;63;30122;-76
2022/01/16 22:17:24;;;;;;;3.38;1.20;;;17.30;72.50;;;;;;2251452;62;30120;-75
2022/01/16 22:19:50;;;;;;;2.13;1.23;;;17.30;72.50;;;;;;2267599;62;30141;-76
2022/01/16 22:22:17;;;;;;;2.33;1.27;;;17.30;72.40;;;;;;2261108;62;30711;-75
2022/01/16 22:24:43;;;;;;;2.25;1.33;;;17.30;72.40;;;;;;2252755;63;30321;-76
2022/01/16 22:27:09;;;;;;;3.58;1.40;;;17.30;72.30;;;;;;2259531;62;30306;-77
2022/01/16 22:29:35;;;;;;;3.67;1.45;;;17.40;72.40;;;;;;2259688;62;30458;-76
2022/01/16 22:32:01;;;;;;;3.33;1.60;;;17.30;72.30;;;;;;2259738;63;30236;-76
2022/01/16 22:34:27;;;;;;;5.47;1.83;;;17.30;72.30;;;;;;2258641;62;30293;-77
2022/01/16 22:36:53;;;;;;;6.32;2.70;;;17.30;72.30;;;;;;2259810;63;30080;-72
2022/01/16 22:39:19;;;;;;;4.15;2.35;;;17.30;72.30;;;;;;2260702;63;30187;-71
2022/01/16 22:41:45;;;;;;;4.75;2.53;;;17.30;72.30;;;;;;2260439;63;30103;-72
2022/01/16 22:44:11;;;;;;;8.23;2.60;;;17.20;72.20;;;;;;2255933;62;30727;-74
2022/01/16 22:46:37;;;;;;;3.63;1.92;;;17.20;72.50;;;;;;2268631;62;30173;-74
2022/01/16 22:49:05;;;;;;;4.18;2.05;;;17.10;72.50;;;;;;2267867;62;31899;-73
2022/01/16 22:51:34;;;;;;;4.13;1.97;;;17.10;72.50;;;;;;2261867;62;30218;-72
2022/01/16 22:54:00;;;;;;;6.00;3.13;;;17.10;72.50;;;;;;2268739;62;30386;-73
2022/01/16 22:56:25;;;;;;;4.25;2.72;;;17.20;72.60;;;;;;2261148;62;30306;-73
2022/01/16 22:58:53;;;;;;;5.70;3.00;;;17.20;72.60;;;;;;2268655;62;30226;-72
2022/01/16 23:01:19;;;;;;;9.75;2.50;;;17.20;72.60;;;;;;2268478;62;30355;-72
2022/01/16 23:03:45;;;;;;;4.93;2.40;;;17.20;72.50;;;;;;2261333;62;29959;-72
2022/01/16 23:06:10;;;;;;;4.35;2.08;;;17.20;72.50;;;;;;2268498;62;30299;-73
2022/01/16 23:08:36;;;;;;;4.88;2.10;;;17.20;72.40;;;;;;2261097;62;30039;-74
2022/01/16 23:11:03;;;;;;;6.05;2.35;;;17.20;72.40;;;;;;2261370;62;30851;-73
2022/01/16 23:13:29;;;;;;;5.85;2.20;;;17.20;72.40;;;;;;2268674;62;30302;-74
2022/01/16 23:15:55;;;;;;;3.58;2.17;;;17.20;72.30;;;;;;2261194;62;30154;-74
2022/01/16 23:18:21;;;;;;;4.63;2.10;;;17.20;72.30;;;;;;2268588;62;30240;-72
2022/01/16 23:20:49;;;;;;;5.35;1.80;;;17.30;72.30;;;;;;2268645;62;31597;-72
2022/01/16 23:23:18;;;;;;;3.25;1.88;;;17.30;72.40;;;;;;2268550;62;30247;-74
2022/01/16 23:25:44;;;;;;;3.17;1.83;;;17.30;72.30;;;;;;2268712;62;30203;-73
2022/01/16 23:28:10;;;;;;;2.80;1.55;;;17.20;72.20;;;;;;2260866;62;30150;-72
2022/01/16 23:30:36;;;;;;;5.20;2.15;;;17.30;72.20;;;;;;2252909;63;30622;-72
2022/01/16 23:33:02;;;;;;;3.85;1.95;;;17.30;72.20;;;;;;2260530;63;30221;-72
2022/01/16 23:35:29;;;;;;;2.45;1.42;;;17.30;72.20;;;;;;2266953;62;30237;-72
2022/01/16 23:37:55;;;;;;;4.68;1.90;;;17.30;72.20;;;;;;2268313;62;30874;-73
2022/01/16 23:40:21;;;;;;;4.88;1.70;;;17.30;72.10;;;;;;2268560;62;30378;-74
2022/01/16 23:42:52;;;;;;;3.20;1.70;;;17.30;71.90;;;;;;2268607;62;30818;-73
2022/01/16 23:45:22;;;;;;;3.40;1.98;;;17.20;72.00;;;;;;2261327;62;30224;-73
2022/01/16 23:47:47;;;;;;;2.83;1.40;;;17.20;72.20;;;;;;2261302;62;30390;-74
2022/01/16 23:50:15;;;;;;;4.03;2.05;;;17.20;72.20;;;;;;2268487;62;30442;-73
2022/01/16 23:52:40;;;;;;;4.00;1.95;;;17.10;72.20;;;;;;2261030;62;30107;-74
